Time;durP1;ratioP1;P1;durP2;ratioP2;P2;SDS_P1;SDS_P2;PMS_P1;PMS_P2;Temp;Humidity;BMP_temperature;BMP_pressure;BME280_temperature;BME280_humidity;BME280_pressure;Samples;Min_cycle;Max_cycle;Signal;HPM_P1;HPM_P2
2021/08/31 00:00:48;;;;;;;0.50;0.40;;;13.70;99.90;;;;;;5014723;28;20818;-83
2021/08/31 00:03:15;;;;;;;0.50;0.30;;;13.70;99.90;;;;;;5014105;28;20439;-83
2021/08/31 00:05:42;;;;;;;0.50;0.40;;;13.70;99.90;;;;;;5014701;28;20442;-83
2021/08/31 00:08:09;;;;;;;0.50;0.40;;;13.60;99.90;;;;;;5014745;28;20820;-81
2021/08/31 00:10:35;;;;;;;0.50;0.40;;;13.60;99.90;;;;;;5014343;28;20474;-83
2021/08/31 00:13:03;;;;;;;0.50;0.40;;;13.60;99.90;;;;;;5013832;28;20479;-83
2021/08/31 00:15:29;;;;;;;0.50;0.40;;;13.60;99.90;;;;;;5015129;28;20452;-82
2021/08/31 00:18:00;;;;;;;0.50;0.40;;;13.60;99.90;;;;;;5014738;28;20469;-83
2021/08/31 00:20:27;;;;;;;0.50;0.40;;;13.60;99.90;;;;;;5015279;28;20482;-82
2021/08/31 00:22:54;;;;;;;0.50;0.37;;;13.50;99.90;;;;;;5014501;28;20945;-83
2021/08/31 00:25:21;;;;;;;0.50;0.40;;;13.60;99.90;;;;;;5016836;28;20801;-83
2021/08/31 00:27:47;;;;;;;0.50;0.40;;;13.50;99.90;;;;;;5016067;28;20443;-82
2021/08/31 00:30:14;;;;;;;0.50;0.40;;;13.50;99.90;;;;;;5015687;28;20459;-81
2021/08/31 00:32:41;;;;;;;0.50;0.40;;;13.50;99.90;;;;;;5014527;28;20490;-82
2021/08/31 00:35:10;;;;;;;0.50;0.40;;;13.40;99.90;;;;;;5015097;28;20439;-83
2021/08/31 00:37:37;;;;;;;0.50;0.40;;;13.40;99.90;;;;;;5015644;28;20440;-83
2021/08/31 00:40:04;;;;;;;0.50;0.40;;;13.30;99.90;;;;;;5015382;28;20470;-83
2021/08/31 00:42:31;;;;;;;0.50;0.30;;;13.40;99.90;;;;;;5014988;28;20444;-82
2021/08/31 00:44:58;;;;;;;0.50;0.40;;;13.40;99.90;;;;;;5015234;28;20466;-82
2021/08/31 00:47:25;;;;;;;0.50;0.40;;;13.40;99.90;;;;;;5014856;28;20948;-82
2021/08/31 00:49:53;;;;;;;0.50;0.40;;;13.40;99.90;;;;;;5014964;28;20825;-83
2021/08/31 00:52:22;;;;;;;0.67;0.67;;;13.40;99.90;;;;;;5015069;28;20844;-81
2021/08/31 00:54:49;;;;;;;0.50;0.40;;;13.40;99.90;;;;;;5014881;28;20444;-82
2021/08/31 00:57:16;;;;;;;0.50;0.40;;;13.40;99.90;;;;;;5014955;28;20446;-82
2021/08/31 00:59:43;;;;;;;0.50;0.50;;;13.40;99.90;;;;;;5015074;28;20462;-82
2021/08/31 01:02:10;;;;;;;0.50;0.37;;;13.30;99.90;;;;;;5015408;28;20439;-82
2021/08/31 01:04:37;;;;;;;0.50;0.40;;;13.30;99.90;;;;;;5014730;28;20447;-83
2021/08/31 01:07:04;;;;;;;0.50;0.30;;;13.30;99.90;;;;;;5015493;28;20454;-81
2021/08/31 01:09:33;;;;;;;0.50;0.37;;;13.30;99.90;;;;;;5014779;28;20478;-83
2021/08/31 01:12:00;;;;;;;0.50;0.40;;;13.40;99.90;;;;;;5014090;28;20478;-82
2021/08/31 01:14:27;;;;;;;0.50;0.40;;;13.40;99.90;;;;;;5016779;28;20299;-83
2021/08/31 01:16:55;;;;;;;0.50;0.30;;;13.40;99.90;;;;;;5018261;28;20956;-82
2021/08/31 01:19:29;;;;;;;0.50;0.40;;;13.40;99.90;;;;;;5018174;28;20495;-82
2021/08/31 01:21:58;;;;;;;0.50;0.30;;;13.30;99.90;;;;;;5018701;28;20423;-83
2021/08/31 01:24:24;;;;;;;0.50;0.40;;;13.30;99.90;;;;;;5018685;28;20688;-80
2021/08/31 01:26:54;;;;;;;0.50;0.30;;;13.30;99.90;;;;;;5018724;28;20436;-82
2021/08/31 01:29:21;;;;;;;0.50;0.40;;;13.30;99.90;;;;;;5018964;28;20462;-83
2021/08/31 01:31:47;;;;;;;0.50;0.30;;;13.20;99.90;;;;;;5018479;28;20479;-83
2021/08/31 01:34:14;;;;;;;0.50;0.50;;;13.20;99.90;;;;;;5018436;28;20215;-82
2021/08/31 01:36:41;;;;;;;0.50;0.37;;;13.20;99.90;;;;;;5019336;28;20454;-82
2021/08/31 01:39:08;;;;;;;0.50;0.40;;;13.20;99.90;;;;;;5018937;28;20463;-83
2021/08/31 01:41:34;;;;;;;0.50;0.40;;;13.20;99.90;;;;;;5018132;28;20457;-82
2021/08/31 01:44:02;;;;;;;0.50;0.40;;;13.10;99.90;;;;;;5018369;28;20447;-83
2021/08/31 01:46:30;;;;;;;0.50;0.40;;;13.20;99.90;;;;;;5018151;28;20465;-82
2021/08/31 01:48:57;;;;;;;0.50;0.40;;;13.20;99.90;;;;;;5018880;28;20464;-82
2021/08/31 01:51:24;;;;;;;0.50;0.30;;;13.20;99.90;;;;;;5018000;28;20446;-83
2021/08/31 01:53:51;;;;;;;0.50;0.33;;;13.20;99.90;;;;;;5018978;28;20443;-83
2021/08/31 01:56:17;;;;;;;0.50;0.33;;;13.30;99.90;;;;;;5018102;28;20444;-83
2021/08/31 01:58:44;;;;;;;0.50;0.40;;;13.40;99.90;;;;;;5017783;28;21027;-83
2021/08/31 02:01:12;;;;;;;0.50;0.40;;;13.50;99.90;;;;;;5018921;28;20804;-83
2021/08/31 02:03:39;;;;;;;0.50;0.40;;;13.50;99.90;;;;;;5019102;28;20442;-83
2021/08/31 02:06:06;;;;;;;1.17;1.17;;;13.60;99.90;;;;;;5019334;28;20557;-83
2021/08/31 02:08:33;;;;;;;0.97;0.97;;;13.60;99.90;;;;;;5019414;28;20440;-83
2021/08/31 02:10:59;;;;;;;0.50;0.30;;;13.70;99.90;;;;;;5018662;28;20446;-83
2021/08/31 02:13:26;;;;;;;0.50;0.30;;;13.70;99.90;;;;;;5018932;28;20479;-82
2021/08/31 02:15:53;;;;;;;0.50;0.40;;;13.70;99.90;;;;;;5019585;28;20473;-83
2021/08/31 02:18:21;;;;;;;0.50;0.30;;;13.70;99.90;;;;;;5019337;28;20213;-83
2021/08/31 02:20:48;;;;;;;0.50;0.40;;;13.70;99.90;;;;;;5018968;28;20444;-83
2021/08/31 02:23:14;;;;;;;0.50;0.30;;;13.80;99.90;;;;;;5019445;28;20450;-83
2021/08/31 02:25:41;;;;;;;1.43;1.33;;;13.80;99.90;;;;;;5018359;28;20440;-83
2021/08/31 02:28:08;;;;;;;0.50;0.40;;;13.90;99.90;;;;;;5019033;28;20435;-83
2021/08/31 02:30:34;;;;;;;0.50;0.30;;;13.90;99.90;;;;;;5018877;28;20843;-83
2021/08/31 02:33:02;;;;;;;0.50;0.33;;;13.90;99.90;;;;;;5018110;28;20471;-83
2021/08/31 02:35:31;;;;;;;0.50;0.40;;;14.00;99.90;;;;;;5018706;28;20454;-82
2021/08/31 02:37:58;;;;;;;0.50;0.40;;;14.00;99.90;;;;;;5019527;28;20809;-83
2021/08/31 02:40:24;;;;;;;0.50;0.30;;;14.10;99.90;;;;;;5018978;28;20463;-83
2021/08/31 02:42:51;;;;;;;0.50;0.40;;;14.10;99.90;;;;;;5018913;28;20435;-83
2021/08/31 02:45:18;;;;;;;0.50;0.40;;;14.20;99.90;;;;;;5018402;28;20884;-83
2021/08/31 02:47:45;;;;;;;0.50;0.40;;;14.30;99.90;;;;;;5018818;28;20497;-83
2021/08/31 02:50:11;;;;;;;0.50;0.40;;;14.30;99.90;;;;;;5018464;28;20466;-83
2021/08/31 02:52:39;;;;;;;0.50;0.37;;;14.30;99.90;;;;;;5018534;28;20479;-83
2021/08/31 02:55:07;;;;;;;2.30;2.20;;;14.30;99.90;;;;;;5018777;28;20940;-84
2021/08/31 02:57:33;;;;;;;0.50;0.33;;;14.40;99.90;;;;;;5017793;28;20486;-82
2021/08/31 03:00:01;;;;;;;0.50;0.30;;;14.40;99.90;;;;;;5018412;28;20459;-83
2021/08/31 03:02:28;;;;;;;0.60;0.40;;;14.40;99.90;;;;;;5018212;28;20442;-82
2021/08/31 03:04:55;;;;;;;0.50;0.40;;;14.40;99.90;;;;;;5018120;28;20439;-83
2021/08/31 03:07:21;;;;;;;0.50;0.43;;;14.40;99.90;;;;;;5019127;28;20460;-84
2021/08/31 03:09:50;;;;;;;0.50;0.30;;;14.30;99.90;;;;;;5018221;28;20469;-83
2021/08/31 03:12:17;;;;;;;0.50;0.40;;;14.30;99.90;;;;;;5017506;28;20501;-83
2021/08/31 03:14:44;;;;;;;0.90;0.80;;;14.30;99.90;;;;;;5018187;28;21028;-83
2021/08/31 03:17:11;;;;;;;0.50;0.30;;;14.30;99.90;;;;;;5018066;28;20431;-82
2021/08/31 03:19:39;;;;;;;2.13;1.73;;;14.30;99.90;;;;;;5018157;28;20470;-83
2021/08/31 03:22:09;;;;;;;0.50;0.40;;;14.30;99.90;;;;;;5017993;28;20432;-84
2021/08/31 03:24:35;;;;;;;0.50;0.40;;;14.30;99.90;;;;;;5016567;28;20443;-83
2021/08/31 03:27:04;;;;;;;0.50;0.30;;;14.30;99.90;;;;;;5017000;28;20446;-83
2021/08/31 03:29:31;;;;;;;0.50;0.30;;;14.40;99.90;;;;;;5016343;28;20456;-83
2021/08/31 03:31:58;;;;;;;0.50;0.40;;;14.40;99.90;;;;;;5016197;28;20436;-83
2021/08/31 03:34:25;;;;;;;0.50;0.30;;;14.40;99.90;;;;;;5017661;28;20437;-80
2021/08/31 03:36:51;;;;;;;0.50;0.30;;;14.40;99.90;;;;;;5016459;28;20450;-82
2021/08/31 03:39:18;;;;;;;0.50;0.30;;;14.30;99.90;;;;;;5016753;28;20467;-81
2021/08/31 03:41:45;;;;;;;0.50;0.40;;;14.30;99.90;;;;;;5016865;28;20473;-82
2021/08/31 03:44:13;;;;;;;0.70;0.60;;;14.30;99.90;;;;;;5018732;28;21039;-82
2021/08/31 03:46:40;;;;;;;0.50;0.30;;;14.30;99.90;;;;;;5035606;28;20827;-82
2021/08/31 03:49:06;;;;;;;0.50;0.40;;;14.40;99.90;;;;;;5035264;28;20503;-83
2021/08/31 03:51:33;;;;;;;0.50;0.30;;;14.40;99.90;;;;;;5035064;28;20438;-83
2021/08/31 03:54:01;;;;;;;0.50;0.33;;;14.30;99.90;;;;;;5035862;28;20485;-83
2021/08/31 03:56:28;;;;;;;6.00;2.40;;;14.30;99.90;;;;;;5035883;28;20453;-79
2021/08/31 03:58:55;;;;;;;0.50;0.30;;;14.30;99.90;;;;;;5035664;28;20458;-83
2021/08/31 04:01:23;;;;;;;0.50;0.40;;;14.30;99.90;;;;;;5035830;28;20442;-82
2021/08/31 04:03:50;;;;;;;0.87;0.87;;;14.30;99.90;;;;;;5035935;28;20450;-83
2021/08/31 04:06:16;;;;;;;0.60;0.60;;;14.40;99.90;;;;;;5035800;28;20441;-82
2021/08/31 04:08:43;;;;;;;0.50;0.40;;;14.40;99.90;;;;;;5035954;28;20470;-83
2021/08/31 04:11:10;;;;;;;0.50;0.30;;;14.40;99.90;;;;;;5035458;28;20442;-83
2021/08/31 04:13:36;;;;;;;0.50;0.30;;;14.40;99.90;;;;;;5036282;28;20484;-82
2021/08/31 04:16:04;;;;;;;0.50;0.40;;;14.30;99.90;;;;;;5036715;28;20963;-83
2021/08/31 04:18:32;;;;;;;0.50;0.30;;;14.30;99.90;;;;;;5036601;28;20440;-82
2021/08/31 04:20:58;;;;;;;0.60;0.40;;;14.40;99.90;;;;;;5036172;28;20418;-83
2021/08/31 04:23:25;;;;;;;0.50;0.30;;;14.40;99.90;;;;;;5035864;28;20520;-82
2021/08/31 04:25:52;;;;;;;0.50;0.30;;;14.40;99.90;;;;;;5038684;28;20807;-82
2021/08/31 04:28:19;;;;;;;0.50;0.40;;;14.40;99.90;;;;;;5036253;28;20828;-82
2021/08/31 04:30:45;;;;;;;0.50;0.33;;;14.40;99.90;;;;;;5044295;28;20458;-82
2021/08/31 04:33:12;;;;;;;0.50;0.30;;;14.50;99.90;;;;;;5036190;28;20507;-82
2021/08/31 04:35:40;;;;;;;1.73;0.83;;;14.40;99.90;;;;;;5034635;28;20439;-82
2021/08/31 04:38:07;;;;;;;0.50;0.40;;;14.40;99.90;;;;;;5017603;28;20446;-82
2021/08/31 04:40:34;;;;;;;0.50;0.30;;;14.40;99.90;;;;;;5034225;28;20462;-83
2021/08/31 04:43:01;;;;;;;0.50;0.30;;;14.40;99.90;;;;;;5034966;28;20434;-83
2021/08/31 04:45:27;;;;;;;0.50;0.50;;;14.40;99.90;;;;;;5034525;28;20442;-81
2021/08/31 04:47:54;;;;;;;0.50;0.33;;;14.40;99.90;;;;;;5035084;28;20441;-83
2021/08/31 04:50:21;;;;;;;1.33;1.27;;;14.40;99.90;;;;;;5038789;28;20476;-82
2021/08/31 04:52:49;;;;;;;0.50;0.40;;;14.40;99.90;;;;;;5040720;28;20482;-82
2021/08/31 04:55:16;;;;;;;0.50;0.40;;;14.40;99.90;;;;;;5041125;28;20438;-82
2021/08/31 04:57:43;;;;;;;0.50;0.40;;;14.40;99.90;;;;;;5040790;28;20462;-82
2021/08/31 05:00:11;;;;;;;0.50;0.40;;;14.40;99.90;;;;;;5040863;28;21009;-81
2021/08/31 05:02:37;;;;;;;0.50;0.37;;;14.40;99.90;;;;;;5040607;28;20442;-82
2021/08/31 05:05:05;;;;;;;0.50;0.40;;;14.40;99.90;;;;;;5040755;28;20468;-82
2021/08/31 05:07:32;;;;;;;0.67;0.67;;;14.40;99.90;;;;;;5040536;28;20450;-81
2021/08/31 05:10:00;;;;;;;0.50;0.40;;;14.40;99.90;;;;;;5039449;28;20469;-82
2021/08/31 05:12:27;;;;;;;0.70;0.70;;;14.40;99.90;;;;;;5038866;28;20446;-82
2021/08/31 05:14:53;;;;;;;2.03;1.43;;;14.50;99.90;;;;;;5040412;28;20443;-82
2021/08/31 05:17:20;;;;;;;1.63;1.53;;;14.40;99.90;;;;;;5040335;28;20469;-82
2021/08/31 05:19:47;;;;;;;0.50;0.30;;;14.40;99.90;;;;;;5038778;28;20485;-82
2021/08/31 05:22:14;;;;;;;0.50;0.40;;;14.40;99.90;;;;;;5039875;28;20446;-82
2021/08/31 05:24:42;;;;;;;0.50;0.40;;;14.40;99.90;;;;;;5039437;28;20431;-82
2021/08/31 05:27:10;;;;;;;0.50;0.37;;;14.50;99.90;;;;;;5040430;28;20501;-82
2021/08/31 05:29:37;;;;;;;0.50;0.33;;;14.50;99.90;;;;;;5039147;28;20463;-82
2021/08/31 05:32:04;;;;;;;0.63;0.57;;;14.50;99.90;;;;;;5039943;28;20445;-83
2021/08/31 05:34:31;;;;;;;0.50;0.40;;;14.60;99.90;;;;;;5040571;28;20478;-82
2021/08/31 05:36:58;;;;;;;0.50;0.40;;;14.60;99.90;;;;;;5039997;28;20441;-82
2021/08/31 05:39:32;;;;;;;3.43;2.20;;;14.60;99.90;;;;;;5038531;28;20467;-81
2021/08/31 05:41:59;;;;;;;0.50;0.30;;;14.60;99.90;;;;;;5037368;28;20907;-83
2021/08/31 05:44:27;;;;;;;3.10;2.80;;;14.60;99.90;;;;;;5038883;28;20434;-81
2021/08/31 05:46:54;;;;;;;5.50;2.20;;;14.60;99.90;;;;;;5038256;28;20451;-82
2021/08/31 05:49:20;;;;;;;0.50;0.30;;;14.60;99.90;;;;;;5037345;28;20461;-81
2021/08/31 05:51:47;;;;;;;0.50;0.40;;;14.60;99.90;;;;;;5037859;28;20887;-82
2021/08/31 05:54:14;;;;;;;0.50;0.40;;;14.60;99.90;;;;;;5038860;28;20478;-83
2021/08/31 05:56:40;;;;;;;12.00;1.23;;;14.70;99.90;;;;;;5039292;28;20975;-82
2021/08/31 05:59:07;;;;;;;0.50;0.40;;;14.70;99.90;;;;;;5037172;28;20472;-83
2021/08/31 06:01:36;;;;;;;0.50;0.40;;;14.70;99.90;;;;;;5036284;28;20435;-82
2021/08/31 06:04:02;;;;;;;1.50;1.40;;;14.70;99.90;;;;;;5036518;28;20939;-82
2021/08/31 06:06:29;;;;;;;0.70;0.70;;;14.70;99.90;;;;;;5037280;28;20443;-79
2021/08/31 06:08:56;;;;;;;1.10;0.90;;;14.80;99.90;;;;;;5037454;28;20508;-82
2021/08/31 06:11:23;;;;;;;0.50;0.40;;;14.80;99.90;;;;;;5035633;28;20442;-81
2021/08/31 06:13:50;;;;;;;2.80;2.50;;;14.80;99.90;;;;;;5036208;28;20474;-83
2021/08/31 06:16:17;;;;;;;0.50;0.37;;;14.90;99.90;;;;;;5036734;28;20446;-82
2021/08/31 06:18:45;;;;;;;1.07;1.07;;;14.90;99.90;;;;;;5036391;28;20471;-82
2021/08/31 06:21:11;;;;;;;0.50;0.40;;;14.90;99.90;;;;;;5036008;28;20453;-81
2021/08/31 06:23:38;;;;;;;0.50;0.40;;;15.00;99.90;;;;;;5037252;28;20804;-81
2021/08/31 06:26:05;;;;;;;0.50;0.40;;;15.00;99.90;;;;;;5037594;28;20446;-81
2021/08/31 06:28:32;;;;;;;0.50;0.37;;;15.10;99.90;;;;;;5038147;28;20452;-81
2021/08/31 06:30:59;;;;;;;0.63;0.60;;;15.10;99.90;;;;;;5037598;28;20507;-81
2021/08/31 06:33:26;;;;;;;0.50;0.30;;;15.10;99.90;;;;;;5037180;28;20538;-79
2021/08/31 06:35:54;;;;;;;0.50;0.30;;;15.20;99.90;;;;;;5037107;28;20442;-82
2021/08/31 06:38:21;;;;;;;0.50;0.40;;;15.20;99.90;;;;;;5038199;28;20437;-81
2021/08/31 06:40:47;;;;;;;5.10;2.10;;;15.20;99.90;;;;;;5037646;28;20446;-82
2021/08/31 06:43:14;;;;;;;0.50;0.30;;;15.20;99.90;;;;;;5037875;28;20431;-81
2021/08/31 06:45:41;;;;;;;0.50;0.40;;;15.30;99.90;;;;;;5037827;28;20438;-81
2021/08/31 06:48:08;;;;;;;0.50;0.37;;;15.30;99.90;;;;;;5037777;28;20438;-81
2021/08/31 06:50:34;;;;;;;0.60;0.60;;;15.40;99.90;;;;;;5036408;28;20463;-80
2021/08/31 06:53:03;;;;;;;1.07;0.97;;;15.40;99.90;;;;;;5029332;28;20451;-82
2021/08/31 06:55:29;;;;;;;1.10;1.10;;;15.40;99.90;;;;;;5019669;28;20432;-82
2021/08/31 06:57:56;;;;;;;0.50;0.40;;;15.40;99.90;;;;;;5019241;28;20444;-82
2021/08/31 07:00:23;;;;;;;1.27;1.27;;;15.50;99.90;;;;;;5020373;28;20469;-83
2021/08/31 07:02:50;;;;;;;2.00;1.40;;;15.50;99.90;;;;;;5020095;28;20448;-82
2021/08/31 07:05:17;;;;;;;0.50;0.40;;;15.50;99.90;;;;;;5019325;28;20454;-81
2021/08/31 07:07:43;;;;;;;0.50;0.40;;;15.50;99.90;;;;;;5019698;28;20478;-83
2021/08/31 07:10:12;;;;;;;0.50;0.30;;;15.60;99.90;;;;;;5019034;28;20459;-81
2021/08/31 07:12:39;;;;;;;0.50;0.30;;;15.70;99.90;;;;;;5018276;28;20463;-82
2021/08/31 07:15:09;;;;;;;0.50;0.40;;;15.60;99.90;;;;;;5020231;28;20487;-83
2021/08/31 07:17:36;;;;;;;0.50;0.40;;;15.70;99.90;;;;;;5019814;28;20443;-82
2021/08/31 07:20:05;;;;;;;0.50;0.30;;;15.70;99.90;;;;;;5019732;28;20562;-83
2021/08/31 07:22:31;;;;;;;0.50;0.40;;;15.80;99.90;;;;;;5018293;28;20842;-83
2021/08/31 07:24:58;;;;;;;0.50;0.37;;;15.80;99.90;;;;;;5019963;28;20531;-82
2021/08/31 07:27:26;;;;;;;1.43;1.37;;;15.90;99.90;;;;;;5018341;28;20440;-83
2021/08/31 07:29:53;;;;;;;0.70;0.70;;;16.00;99.90;;;;;;5019043;28;20467;-82
2021/08/31 07:32:20;;;;;;;0.97;0.97;;;16.00;99.90;;;;;;5018999;28;20439;-82
2021/08/31 07:34:46;;;;;;;0.50;0.30;;;16.20;99.90;;;;;;5019196;28;20475;-82
2021/08/31 07:37:13;;;;;;;0.50;0.40;;;16.20;99.90;;;;;;5018924;28;20646;-84
2021/08/31 07:39:42;;;;;;;0.70;0.70;;;16.30;99.90;;;;;;5019683;28;20467;-83
2021/08/31 07:42:10;;;;;;;0.50;0.30;;;16.30;99.90;;;;;;5018061;28;20474;-83
2021/08/31 07:44:38;;;;;;;0.50;0.30;;;16.30;99.90;;;;;;5019656;28;20443;-83
2021/08/31 07:47:05;;;;;;;0.50;0.30;;;16.30;99.90;;;;;;5019501;28;20435;-81
2021/08/31 07:49:32;;;;;;;0.60;0.30;;;16.30;99.90;;;;;;5019624;28;20476;-82
2021/08/31 07:51:59;;;;;;;0.50;0.30;;;16.30;99.90;;;;;;5019430;28;20436;-82
2021/08/31 07:54:25;;;;;;;0.50;0.30;;;16.30;99.90;;;;;;5019032;28;20475;-82
2021/08/31 07:56:52;;;;;;;2.50;2.40;;;16.30;99.90;;;;;;5019124;28;20479;-82
2021/08/31 07:59:19;;;;;;;2.70;2.57;;;16.30;99.90;;;;;;5018840;28;20472;-79
2021/08/31 08:01:47;;;;;;;0.50;0.33;;;16.40;99.90;;;;;;5018227;28;20443;-83
2021/08/31 08:04:14;;;;;;;0.50;0.40;;;16.50;99.90;;;;;;5016587;28;20435;-81
2021/08/31 08:06:42;;;;;;;2.00;1.70;;;16.80;99.90;;;;;;5016167;28;20931;-83
2021/08/31 08:09:08;;;;;;;0.50;0.30;;;16.90;99.90;;;;;;5016232;28;20482;-81
2021/08/31 08:11:36;;;;;;;0.50;0.30;;;17.00;99.90;;;;;;5015817;28;20439;-81
2021/08/31 08:14:03;;;;;;;0.50;0.33;;;17.20;99.90;;;;;;5016412;28;20478;-83
2021/08/31 08:16:30;;;;;;;0.50;0.30;;;17.30;99.90;;;;;;5015584;28;20444;-80
2021/08/31 08:18:58;;;;;;;0.50;0.40;;;17.50;99.90;;;;;;5014990;28;20477;-82
2021/08/31 08:21:24;;;;;;;0.50;0.30;;;17.70;99.90;;;;;;5015692;28;20443;-81
2021/08/31 08:23:52;;;;;;;0.50;0.30;;;17.80;99.90;;;;;;5017577;28;20927;-82
2021/08/31 08:26:18;;;;;;;0.50;0.40;;;18.00;99.90;;;;;;5020696;28;20458;-83
2021/08/31 08:28:45;;;;;;;3.10;2.87;;;18.00;99.90;;;;;;5018894;28;20469;-81
2021/08/31 08:31:12;;;;;;;0.50;0.30;;;18.10;99.90;;;;;;5019104;28;20524;-83
2021/08/31 08:33:39;;;;;;;0.50;0.30;;;18.20;99.90;;;;;;5020753;28;20482;-82
2021/08/31 08:36:08;;;;;;;0.50;0.40;;;18.30;99.90;;;;;;5020887;28;20440;-82
2021/08/31 08:38:35;;;;;;;0.50;0.40;;;18.30;99.90;;;;;;5020122;28;20450;-82
2021/08/31 08:41:05;;;;;;;0.50;0.40;;;18.40;99.90;;;;;;5019464;28;20960;-83
2021/08/31 08:43:32;;;;;;;0.50;0.40;;;18.40;99.90;;;;;;5021776;28;20508;-83
2021/08/31 08:46:02;;;;;;;1.13;1.13;;;18.40;99.90;;;;;;5021435;28;20442;-79
2021/08/31 08:48:29;;;;;;;0.50;0.30;;;18.40;99.90;;;;;;5021152;28;20444;-83
2021/08/31 08:50:58;;;;;;;0.60;0.40;;;18.50;99.90;;;;;;5020783;28;20450;-82
2021/08/31 08:53:27;;;;;;;5.10;2.93;;;18.80;99.90;;;;;;5020242;28;21010;-82
2021/08/31 08:55:56;;;;;;;0.50;0.40;;;19.10;99.90;;;;;;5020503;28;20447;-83
2021/08/31 08:58:23;;;;;;;6.23;1.93;;;19.50;99.90;;;;;;5021988;28;20481;-84
2021/08/31 09:00:55;;;;;;;7.20;1.17;;;20.00;99.90;;;;;;5022283;28;20448;-82
2021/08/31 09:03:23;;;;;;;0.50;0.40;;;20.50;99.90;;;;;;5021989;28;20469;-83
2021/08/31 09:06:13;;;;;;;0.60;0.40;;;21.10;99.90;;;;;;5021400;28;20442;-83
2021/08/31 09:08:54;;;;;;;0.60;0.47;;;21.70;99.90;;;;;;5020911;28;20500;-83
2021/08/31 09:11:23;;;;;;;0.50;0.30;;;22.00;99.90;;;;;;5020599;28;20426;-83
2021/08/31 09:13:51;;;;;;;0.50;0.40;;;22.50;99.90;;;;;;5019655;28;20451;-83
2021/08/31 09:16:29;;;;;;;0.50;0.30;;;23.20;99.90;;;;;;5021139;28;20447;-83
2021/08/31 09:18:58;;;;;;;0.50;0.30;;;23.60;99.90;;;;;;5021249;28;20957;-83
2021/08/31 09:21:27;;;;;;;0.50;0.30;;;24.00;99.90;;;;;;5019995;28;20467;-81
2021/08/31 09:23:56;;;;;;;0.50;0.30;;;24.60;99.90;;;;;;5021260;28;20476;-81
2021/08/31 09:26:37;;;;;;;0.50;0.30;;;25.30;99.90;;;;;;5020955;28;20450;-84
2021/08/31 09:29:12;;;;;;;0.50;0.30;;;26.40;99.90;;;;;;5020403;28;20469;-83
2021/08/31 09:31:50;;;;;;;0.50;0.40;;;27.50;99.90;;;;;;5021021;28;20427;-84
2021/08/31 09:34:35;;;;;;;0.50;0.30;;;28.30;99.90;;;;;;5019164;28;20474;-83
2021/08/31 09:37:32;;;;;;;0.50;0.30;;;28.50;99.90;;;;;;5020064;28;20454;-82
2021/08/31 09:40:15;;;;;;;0.50;0.30;;;27.80;99.90;;;;;;5019468;28;20474;-82
2021/08/31 09:42:57;;;;;;;0.50;0.30;;;27.20;99.90;;;;;;5020517;28;20494;-83
2021/08/31 09:45:27;;;;;;;3.07;1.23;;;27.90;99.90;;;;;;5020393;28;20452;-83
2021/08/31 09:47:55;;;;;;;0.50;0.30;;;28.40;99.90;;;;;;5020951;28;20443;-83
2021/08/31 09:50:33;;;;;;;0.50;0.30;;;29.60;99.90;;;;;;5020035;28;20829;-81
2021/08/31 09:53:02;;;;;;;0.50;0.30;;;31.10;97.80;;;;;;5021274;28;20450;-84
2021/08/31 09:55:30;;;;;;;0.50;0.40;;;32.70;92.70;;;;;;5020547;28;20477;-80
2021/08/31 09:58:15;;;;;;;0.50;0.30;;;32.40;78.10;;;;;;5020018;28;20435;-83
2021/08/31 10:00:43;;;;;;;0.50;0.40;;;31.60;78.90;;;;;;5020270;28;20990;-83
2021/08/31 10:03:11;;;;;;;0.50;0.30;;;30.80;78.40;;;;;;5019585;28;20462;-82
2021/08/31 10:05:39;;;;;;;0.50;0.30;;;30.70;79.70;;;;;;5021441;28;20436;-83
2021/08/31 10:08:07;;;;;;;0.50;0.30;;;31.40;77.10;;;;;;5020443;28;20450;-83
2021/08/31 10:10:36;;;;;;;0.50;0.30;;;32.30;75.20;;;;;;5020736;28;20791;-84
2021/08/31 10:13:08;;;;;;;0.50;0.30;;;33.40;75.40;;;;;;5019407;28;20491;-82
2021/08/31 10:15:38;;;;;;;0.43;0.30;;;34.60;70.90;;;;;;5020088;28;20478;-82
2021/08/31 10:18:05;;;;;;;0.40;0.30;;;34.00;63.50;;;;;;5019322;28;20459;-83
2021/08/31 10:20:33;;;;;;;0.50;0.30;;;33.40;64.90;;;;;;5021140;28;20479;-83
2021/08/31 10:23:02;;;;;;;0.50;0.30;;;32.70;66.60;;;;;;5019553;28;20454;-83
2021/08/31 10:25:29;;;;;;;0.50;0.30;;;32.00;68.40;;;;;;5020164;28;20442;-80
2021/08/31 10:28:00;;;;;;;0.50;0.30;;;32.20;68.20;;;;;;5019248;28;20439;-80
2021/08/31 10:30:34;;;;;;;0.50;0.30;;;33.10;69.10;;;;;;5020053;28;20473;-82
2021/08/31 10:33:03;;;;;;;0.50;0.50;;;34.50;67.40;;;;;;5019508;28;20435;-83
2021/08/31 10:35:53;;;;;;;0.47;0.30;;;35.20;61.20;;;;;;5018656;28;20486;-80
2021/08/31 10:38:43;;;;;;;0.40;0.30;;;36.80;60.90;;;;;;5018509;28;20449;-81
2021/08/31 10:41:43;;;;;;;0.40;0.30;;;37.60;58.10;;;;;;5019383;28;20544;-83
2021/08/31 10:44:35;;;;;;;0.50;0.30;;;37.30;56.50;;;;;;5015282;28;20449;-83
2021/08/31 10:47:27;;;;;;;0.50;0.30;;;35.60;57.50;;;;;;5019503;28;20939;-82
2021/08/31 10:50:17;;;;;;;0.50;0.30;;;32.90;59.60;;;;;;5019168;28;20467;-83
2021/08/31 10:52:50;;;;;;;0.50;0.30;;;31.80;67.10;;;;;;5020375;28;20869;-82
2021/08/31 10:55:50;;;;;;;0.50;0.30;;;32.50;64.00;;;;;;5018632;28;20910;-83
2021/08/31 10:58:47;;;;;;;0.50;0.30;;;33.60;61.90;;;;;;5019402;28;20440;-83
2021/08/31 11:01:17;;;;;;;0.47;0.30;;;34.60;60.80;;;;;;5019479;28;20457;-81
2021/08/31 11:03:45;;;;;;;0.50;0.30;;;34.90;58.20;;;;;;5017667;28;20440;-83
2021/08/31 11:06:18;;;;;;;0.50;0.30;;;35.00;58.50;;;;;;5018766;28;20448;-83
2021/08/31 11:09:24;;;;;;;0.50;0.30;;;34.30;57.30;;;;;;5090352;28;20526;-82
2021/08/31 11:12:06;;;;;;;0.50;0.30;;;33.80;59.90;;;;;;5074726;28;20419;-82
2021/08/31 11:14:42;;;;;;;0.50;0.30;;;34.30;60.80;;;;;;5074182;28;20455;-80
2021/08/31 11:17:09;;;;;;;0.40;0.30;;;35.20;58.20;;;;;;5074561;28;20442;-82
2021/08/31 11:19:36;;;;;;;0.40;0.30;;;36.00;55.90;;;;;;5077426;28;20457;-84
2021/08/31 11:22:03;;;;;;;0.40;0.30;;;36.50;54.10;;;;;;5075786;28;20447;-83
2021/08/31 11:24:31;;;;;;;0.40;0.30;;;36.60;55.70;;;;;;5075942;28;20437;-80
2021/08/31 11:27:03;;;;;;;0.40;0.30;;;36.50;52.60;;;;;;5076250;28;20496;-83
2021/08/31 11:29:30;;;;;;;0.40;0.30;;;36.40;53.90;;;;;;5078099;28;20470;-83
2021/08/31 11:32:01;;;;;;;0.40;0.30;;;36.20;52.20;;;;;;5076963;28;20817;-80
2021/08/31 11:34:28;;;;;;;0.40;0.30;;;36.00;53.70;;;;;;5074168;28;20530;-79
2021/08/31 11:37:03;;;;;;;0.40;0.30;;;35.80;54.50;;;;;;5073775;28;20449;-82
2021/08/31 11:39:32;;;;;;;0.47;0.37;;;34.80;54.80;;;;;;5074231;28;20468;-82
2021/08/31 11:41:59;;;;;;;0.50;0.30;;;34.80;56.10;;;;;;5073194;28;20444;-82
2021/08/31 11:44:25;;;;;;;0.50;0.30;;;33.50;55.10;;;;;;5073192;28;20924;-83
2021/08/31 11:46:54;;;;;;;0.50;0.30;;;32.60;57.70;;;;;;5073334;28;20472;-82
2021/08/31 11:49:22;;;;;;;0.50;0.30;;;32.60;59.10;;;;;;5074924;28;20463;-82
2021/08/31 11:52:06;;;;;;;0.50;0.40;;;33.20;58.50;;;;;;5073929;28;20444;-83
2021/08/31 11:54:39;;;;;;;0.50;0.30;;;33.70;57.20;;;;;;5073821;28;20453;-82
2021/08/31 11:57:07;;;;;;;0.50;0.40;;;33.60;57.70;;;;;;5073072;28;20923;-81
2021/08/31 11:59:39;;;;;;;0.50;0.30;;;33.60;57.50;;;;;;5072879;28;20459;-81
2021/08/31 12:02:14;;;;;;;0.47;0.30;;;34.40;56.90;;;;;;5073046;28;20439;-82
2021/08/31 12:04:41;;;;;;;0.50;0.30;;;34.10;55.90;;;;;;5073872;28;20447;-84
2021/08/31 12:07:11;;;;;;;0.50;0.30;;;33.60;58.20;;;;;;5073001;28;20487;-83
2021/08/31 12:09:42;;;;;;;0.50;0.30;;;34.30;57.20;;;;;;5072955;28;20471;-83
2021/08/31 12:12:10;;;;;;;0.40;0.30;;;34.90;55.70;;;;;;5072404;28;20449;-81
2021/08/31 12:14:37;;;;;;;0.50;0.30;;;33.90;55.80;;;;;;5072990;28;20452;-81
2021/08/31 12:17:04;;;;;;;0.50;0.30;;;32.70;57.50;;;;;;5073289;28;20444;-82
2021/08/31 12:19:31;;;;;;;0.50;0.30;;;31.90;58.00;;;;;;5064004;28;20468;-81
2021/08/31 12:22:09;;;;;;;0.50;0.30;;;32.30;58.10;;;;;;5060027;28;20448;-83
2021/08/31 12:24:37;;;;;;;0.50;0.30;;;33.20;57.50;;;;;;5060829;28;20796;-84
2021/08/31 12:27:11;;;;;;;0.50;0.30;;;34.00;55.70;;;;;;5059715;28;20450;-82
2021/08/31 12:29:46;;;;;;;0.50;0.30;;;34.30;54.80;;;;;;5060351;28;20462;-83
2021/08/31 12:32:13;;;;;;;0.40;0.30;;;35.10;56.70;;;;;;5059579;28;20442;-82
2021/08/31 12:34:39;;;;;;;0.50;0.30;;;35.40;55.70;;;;;;5060446;28;20442;-82
2021/08/31 12:37:25;;;;;;;0.50;0.30;;;35.20;54.90;;;;;;5059757;28;20440;-82
2021/08/31 12:40:09;;;;;;;1.27;1.17;;;35.60;53.30;;;;;;5059460;28;20451;-83
2021/08/31 12:42:38;;;;;;;0.40;0.30;;;35.80;53.50;;;;;;5059342;28;20444;-82
2021/08/31 12:45:06;;;;;;;0.40;0.30;;;35.80;53.00;;;;;;5059650;28;20480;-82
2021/08/31 12:47:32;;;;;;;0.40;0.30;;;36.30;53.10;;;;;;5054755;28;20484;-81
2021/08/31 12:50:07;;;;;;;0.40;0.30;;;36.10;52.40;;;;;;5040555;28;20462;-82
2021/08/31 12:52:34;;;;;;;0.40;0.30;;;36.30;53.50;;;;;;5038159;28;20679;-81
2021/08/31 12:55:14;;;;;;;0.50;0.30;;;36.80;53.00;;;;;;5051894;28;20533;-81
2021/08/31 12:57:42;;;;;;;0.40;0.30;;;35.50;51.00;;;;;;5062043;28;20447;-82